sensor_id;sensor_type;location;lat;lon;timestamp;P1;durP1;ratioP1;P2;durP2;ratioP2
351;SDS011;164;50.784;6.496;2023-03-01T00:02:25;13.00;;;12.20;;
351;SDS011;164;50.784;6.496;2023-03-01T00:04:53;11.07;;;10.50;;
351;SDS011;164;50.784;6.496;2023-03-01T00:07:20;11.88;;;11.30;;
351;SDS011;164;50.784;6.496;2023-03-01T00:09:47;11.95;;;11.35;;
351;SDS011;164;50.784;6.496;2023-03-01T00:12:14;14.02;;;12.93;;
351;SDS011;164;50.784;6.496;2023-03-01T00:14:41;15.63;;;12.55;;
351;SDS011;164;50.784;6.496;2023-03-01T00:17:09;14.73;;;12.55;;
351;SDS011;164;50.784;6.496;2023-03-01T00:19:37;13.50;;;12.80;;
351;SDS011;164;50.784;6.496;2023-03-01T00:22:05;13.38;;;12.48;;
351;SDS011;164;50.784;6.496;2023-03-01T00:24:32;14.30;;;13.60;;
351;SDS011;164;50.784;6.496;2023-03-01T00:26:59;12.77;;;12.10;;
351;SDS011;164;50.784;6.496;2023-03-01T00:29:27;13.95;;;13.25;;
351;SDS011;164;50.784;6.496;2023-03-01T00:31:54;13.15;;;12.45;;
351;SDS011;164;50.784;6.496;2023-03-01T00:34:22;14.07;;;13.38;;
351;SDS011;164;50.784;6.496;2023-03-01T00:36:50;13.38;;;12.68;;
351;SDS011;164;50.784;6.496;2023-03-01T00:39:18;16.17;;;12.95;;
351;SDS011;164;50.784;6.496;2023-03-01T00:41:45;13.98;;;12.75;;
351;SDS011;164;50.784;6.496;2023-03-01T00:44:12;12.50;;;11.88;;
351;SDS011;164;50.784;6.496;2023-03-01T00:46:40;13.57;;;12.88;;
351;SDS011;164;50.784;6.496;2023-03-01T00:49:07;14.57;;;13.85;;
351;SDS011;164;50.784;6.496;2023-03-01T00:51:34;12.75;;;12.05;;
351;SDS011;164;50.784;6.496;2023-03-01T00:54:03;14.30;;;13.60;;
351;SDS011;164;50.784;6.496;2023-03-01T00:56:30;13.23;;;12.52;;
351;SDS011;164;50.784;6.496;2023-03-01T00:58:58;13.40;;;12.73;;
351;SDS011;164;50.784;6.496;2023-03-01T01:01:26;14.63;;;13.88;;
351;SDS011;164;50.784;6.496;2023-03-01T01:03:56;11.98;;;11.38;;
351;SDS011;164;50.784;6.496;2023-03-01T01:06:24;12.82;;;12.15;;
351;SDS011;164;50.784;6.496;2023-03-01T01:08:52;13.85;;;13.15;;
351;SDS011;164;50.784;6.496;2023-03-01T01:11:22;12.50;;;11.88;;
351;SDS011;164;50.784;6.496;2023-03-01T01:13:50;13.63;;;12.93;;
351;SDS011;164;50.784;6.496;2023-03-01T01:16:18;12.10;;;11.48;;
351;SDS011;164;50.784;6.496;2023-03-01T01:18:46;13.95;;;13.25;;
351;SDS011;164;50.784;6.496;2023-03-01T01:21:14;13.48;;;12.77;;
351;SDS011;164;50.784;6.496;2023-03-01T01:23:42;13.20;;;12.18;;
351;SDS011;164;50.784;6.496;2023-03-01T01:26:10;13.73;;;13.02;;
351;SDS011;164;50.784;6.496;2023-03-01T01:28:46;12.95;;;12.25;;
351;SDS011;164;50.784;6.496;2023-03-01T01:31:14;11.00;;;10.30;;
351;SDS011;164;50.784;6.496;2023-03-01T01:33:41;14.48;;;13.77;;
351;SDS011;164;50.784;6.496;2023-03-01T01:36:08;13.88;;;12.27;;
351;SDS011;164;50.784;6.496;2023-03-01T01:38:36;13.80;;;13.10;;
351;SDS011;164;50.784;6.496;2023-03-01T01:41:04;14.35;;;13.65;;
351;SDS011;164;50.784;6.496;2023-03-01T01:43:33;15.27;;;14.48;;
351;SDS011;164;50.784;6.496;2023-03-01T01:46:03;13.50;;;12.80;;
351;SDS011;164;50.784;6.496;2023-03-01T01:48:33;16.20;;;15.40;;
351;SDS011;164;50.784;6.496;2023-03-01T01:51:05;15.93;;;14.60;;
351;SDS011;164;50.784;6.496;2023-03-01T01:53:34;14.68;;;13.93;;
351;SDS011;164;50.784;6.496;2023-03-01T01:56:02;15.73;;;14.70;;
351;SDS011;164;50.784;6.496;2023-03-01T01:58:29;17.05;;;14.15;;
351;SDS011;164;50.784;6.496;2023-03-01T02:00:57;14.52;;;13.48;;
351;SDS011;164;50.784;6.496;2023-03-01T02:03:28;14.55;;;13.48;;
351;SDS011;164;50.784;6.496;2023-03-01T02:05:59;15.43;;;14.63;;
351;SDS011;164;50.784;6.496;2023-03-01T02:08:29;15.38;;;13.40;;
351;SDS011;164;50.784;6.496;2023-03-01T02:10:57;15.68;;;14.88;;
351;SDS011;164;50.784;6.496;2023-03-01T02:13:26;13.82;;;13.15;;
351;SDS011;164;50.784;6.496;2023-03-01T02:15:53;13.98;;;13.27;;
351;SDS011;164;50.784;6.496;2023-03-01T02:18:21;15.60;;;14.80;;
351;SDS011;164;50.784;6.496;2023-03-01T02:20:56;14.13;;;13.43;;
351;SDS011;164;50.784;6.496;2023-03-01T02:23:27;14.93;;;14.13;;
351;SDS011;164;50.784;6.496;2023-03-01T02:25:56;14.95;;;14.15;;
351;SDS011;164;50.784;6.496;2023-03-01T02:28:30;13.57;;;12.88;;
351;SDS011;164;50.784;6.496;2023-03-01T02:30:58;15.15;;;14.30;;
351;SDS011;164;50.784;6.496;2023-03-01T02:33:42;13.82;;;13.13;;
351;SDS011;164;50.784;6.496;2023-03-01T02:36:15;13.00;;;10.60;;
351;SDS011;164;50.784;6.496;2023-03-01T02:38:44;14.75;;;13.98;;
351;SDS011;164;50.784;6.496;2023-03-01T02:41:11;14.55;;;13.85;;
351;SDS011;164;50.784;6.496;2023-03-01T02:43:41;13.00;;;12.30;;
351;SDS011;164;50.784;6.496;2023-03-01T02:46:13;14.88;;;14.10;;
351;SDS011;164;50.784;6.496;2023-03-01T02:48:41;14.30;;;13.60;;
351;SDS011;164;50.784;6.496;2023-03-01T02:51:11;16.13;;;15.35;;
351;SDS011;164;50.784;6.496;2023-03-01T02:53:41;15.02;;;14.23;;
351;SDS011;164;50.784;6.496;2023-03-01T02:56:14;15.63;;;14.82;;
351;SDS011;164;50.784;6.496;2023-03-01T02:58:42;13.93;;;13.23;;
351;SDS011;164;50.784;6.496;2023-03-01T03:01:13;15.60;;;14.25;;
351;SDS011;164;50.784;6.496;2023-03-01T03:03:41;16.85;;;15.98;;
351;SDS011;164;50.784;6.496;2023-03-01T03:06:09;15.10;;;14.30;;
351;SDS011;164;50.784;6.496;2023-03-01T03:08:36;14.93;;;14.13;;
351;SDS011;164;50.784;6.496;2023-03-01T03:11:03;15.48;;;14.68;;
351;SDS011;164;50.784;6.496;2023-03-01T03:13:31;14.82;;;14.05;;
351;SDS011;164;50.784;6.496;2023-03-01T03:15:59;13.48;;;12.82;;
351;SDS011;164;50.784;6.496;2023-03-01T03:18:29;14.40;;;13.50;;
351;SDS011;164;50.784;6.496;2023-03-01T03:20:56;14.07;;;13.30;;
351;SDS011;164;50.784;6.496;2023-03-01T03:23:23;13.77;;;13.07;;
351;SDS011;164;50.784;6.496;2023-03-01T03:25:51;13.80;;;13.10;;
351;SDS011;164;50.784;6.496;2023-03-01T03:28:18;16.52;;;14.00;;
351;SDS011;164;50.784;6.496;2023-03-01T03:30:45;13.93;;;13.20;;
351;SDS011;164;50.784;6.496;2023-03-01T03:33:14;14.63;;;13.88;;
351;SDS011;164;50.784;6.496;2023-03-01T03:35:42;14.20;;;13.50;;
351;SDS011;164;50.784;6.496;2023-03-01T03:38:10;15.15;;;14.35;;
351;SDS011;164;50.784;6.496;2023-03-01T03:40:42;14.45;;;13.75;;
351;SDS011;164;50.784;6.496;2023-03-01T03:43:10;13.43;;;12.73;;
351;SDS011;164;50.784;6.496;2023-03-01T03:45:38;15.20;;;14.40;;
351;SDS011;164;50.784;6.496;2023-03-01T03:48:06;15.05;;;14.25;;
351;SDS011;164;50.784;6.496;2023-03-01T03:50:35;15.40;;;14.60;;
351;SDS011;164;50.784;6.496;2023-03-01T03:53:04;14.68;;;13.93;;
351;SDS011;164;50.784;6.496;2023-03-01T03:55:32;15.57;;;14.77;;
351;SDS011;164;50.784;6.496;2023-03-01T03:57:59;15.80;;;15.00;;
351;SDS011;164;50.784;6.496;2023-03-01T04:00:32;15.82;;;15.02;;
351;SDS011;164;50.784;6.496;2023-03-01T04:02:59;14.40;;;13.70;;
351;SDS011;164;50.784;6.496;2023-03-01T04:05:27;15.43;;;14.63;;
351;SDS011;164;50.784;6.496;2023-03-01T04:07:56;14.10;;;13.38;;
351;SDS011;164;50.784;6.496;2023-03-01T04:10:33;15.43;;;14.63;;
351;SDS011;164;50.784;6.496;2023-03-01T04:13:00;14.55;;;12.55;;
351;SDS011;164;50.784;6.496;2023-03-01T04:15:28;15.60;;;14.80;;
351;SDS011;164;50.784;6.496;2023-03-01T04:23:38;13.63;;;12.93;;
351;SDS011;164;50.784;6.496;2023-03-01T04:26:06;15.82;;;13.18;;
351;SDS011;164;50.784;6.496;2023-03-01T04:28:34;14.30;;;13.57;;
351;SDS011;164;50.784;6.496;2023-03-01T04:31:02;14.48;;;13.68;;
351;SDS011;164;50.784;6.496;2023-03-01T04:33:37;15.77;;;14.98;;
351;SDS011;164;50.784;6.496;2023-03-01T04:36:05;15.15;;;14.35;;
351;SDS011;164;50.784;6.496;2023-03-01T04:38:33;16.27;;;13.00;;
351;SDS011;164;50.784;6.496;2023-03-01T04:41:03;15.82;;;14.60;;
351;SDS011;164;50.784;6.496;2023-03-01T04:43:30;14.73;;;13.85;;
351;SDS011;164;50.784;6.496;2023-03-01T04:46:02;13.18;;;11.70;;
351;SDS011;164;50.784;6.496;2023-03-01T04:48:31;15.50;;;13.68;;
351;SDS011;164;50.784;6.496;2023-03-01T04:50:58;14.95;;;14.15;;
351;SDS011;164;50.784;6.496;2023-03-01T04:53:26;17.25;;;13.30;;
351;SDS011;164;50.784;6.496;2023-03-01T04:55:53;14.35;;;13.30;;
351;SDS011;164;50.784;6.496;2023-03-01T04:58:22;14.45;;;13.45;;
351;SDS011;164;50.784;6.496;2023-03-01T05:00:50;13.63;;;12.93;;
351;SDS011;164;50.784;6.496;2023-03-01T05:03:17;16.85;;;14.10;;
351;SDS011;164;50.784;6.496;2023-03-01T05:05:45;17.65;;;14.43;;
351;SDS011;164;50.784;6.496;2023-03-01T05:08:12;15.52;;;13.48;;
351;SDS011;164;50.784;6.496;2023-03-01T05:10:43;17.33;;;14.32;;
351;SDS011;164;50.784;6.496;2023-03-01T05:13:11;16.38;;;15.57;;
351;SDS011;164;50.784;6.496;2023-03-01T05:15:41;15.90;;;14.90;;
351;SDS011;164;50.784;6.496;2023-03-01T05:18:08;15.05;;;14.27;;
351;SDS011;164;50.784;6.496;2023-03-01T05:20:40;15.45;;;14.65;;
351;SDS011;164;50.784;6.496;2023-03-01T05:23:09;20.75;;;14.95;;
351;SDS011;164;50.784;6.496;2023-03-01T05:25:36;17.38;;;15.32;;
351;SDS011;164;50.784;6.496;2023-03-01T05:28:05;17.95;;;15.07;;
351;SDS011;164;50.784;6.496;2023-03-01T05:30:34;16.42;;;15.60;;
351;SDS011;164;50.784;6.496;2023-03-01T05:33:02;16.50;;;15.70;;
351;SDS011;164;50.784;6.496;2023-03-01T05:35:32;15.95;;;15.15;;
351;SDS011;164;50.784;6.496;2023-03-01T05:38:00;14.95;;;14.15;;
351;SDS011;164;50.784;6.496;2023-03-01T05:45:39;16.98;;;15.77;;
351;SDS011;164;50.784;6.496;2023-03-01T05:48:08;15.73;;;14.75;;
351;SDS011;164;50.784;6.496;2023-03-01T05:50:37;16.13;;;15.00;;
351;SDS011;164;50.784;6.496;2023-03-01T05:53:06;22.75;;;15.85;;
351;SDS011;164;50.784;6.496;2023-03-01T05:55:34;17.60;;;16.70;;
351;SDS011;164;50.784;6.496;2023-03-01T05:58:02;16.95;;;16.00;;
351;SDS011;164;50.784;6.496;2023-03-01T06:00:29;17.35;;;15.70;;
351;SDS011;164;50.784;6.496;2023-03-01T06:02:58;17.23;;;14.70;;
351;SDS011;164;50.784;6.496;2023-03-01T06:05:27;15.90;;;14.73;;
351;SDS011;164;50.784;6.496;2023-03-01T06:07:54;19.27;;;18.30;;
351;SDS011;164;50.784;6.496;2023-03-01T06:10:22;17.63;;;16.73;;
351;SDS011;164;50.784;6.496;2023-03-01T06:12:49;17.02;;;16.05;;
351;SDS011;164;50.784;6.496;2023-03-01T06:15:17;17.45;;;16.00;;
351;SDS011;164;50.784;6.496;2023-03-01T06:17:45;16.38;;;15.13;;
351;SDS011;164;50.784;6.496;2023-03-01T06:20:13;16.65;;;15.85;;
351;SDS011;164;50.784;6.496;2023-03-01T06:22:47;16.10;;;15.05;;
351;SDS011;164;50.784;6.496;2023-03-01T06:25:15;16.23;;;15.43;;
351;SDS011;164;50.784;6.496;2023-03-01T06:27:43;18.33;;;14.98;;
351;SDS011;164;50.784;6.496;2023-03-01T06:30:11;15.77;;;14.98;;
351;SDS011;164;50.784;6.496;2023-03-01T06:32:39;16.42;;;15.23;;
351;SDS011;164;50.784;6.496;2023-03-01T06:35:07;16.85;;;15.98;;
351;SDS011;164;50.784;6.496;2023-03-01T06:37:34;18.20;;;17.30;;
351;SDS011;164;50.784;6.496;2023-03-01T06:40:03;17.70;;;16.80;;
351;SDS011;164;50.784;6.496;2023-03-01T06:42:33;21.33;;;18.15;;
351;SDS011;164;50.784;6.496;2023-03-01T06:45:00;17.50;;;16.45;;
351;SDS011;164;50.784;6.496;2023-03-01T06:47:27;16.75;;;15.93;;
351;SDS011;164;50.784;6.496;2023-03-01T06:49:54;20.90;;;16.88;;
351;SDS011;164;50.784;6.496;2023-03-01T06:52:22;17.02;;;16.15;;
351;SDS011;164;50.784;6.496;2023-03-01T06:54:49;17.13;;;16.23;;
351;SDS011;164;50.784;6.496;2023-03-01T06:57:17;19.70;;;16.55;;
351;SDS011;164;50.784;6.496;2023-03-01T06:59:46;16.20;;;15.40;;
351;SDS011;164;50.784;6.496;2023-03-01T07:02:13;23.17;;;17.52;;
351;SDS011;164;50.784;6.496;2023-03-01T07:04:41;18.08;;;17.10;;
351;SDS011;164;50.784;6.496;2023-03-01T07:07:08;17.35;;;16.45;;
351;SDS011;164;50.784;6.496;2023-03-01T07:09:36;16.88;;;16.00;;
351;SDS011;164;50.784;6.496;2023-03-01T07:12:03;16.98;;;16.08;;
351;SDS011;164;50.784;6.496;2023-03-01T07:14:32;19.80;;;17.33;;
351;SDS011;164;50.784;6.496;2023-03-01T07:16:59;17.35;;;16.45;;
351;SDS011;164;50.784;6.496;2023-03-01T07:19:27;16.75;;;15.93;;
351;SDS011;164;50.784;6.496;2023-03-01T07:21:54;18.83;;;17.90;;
351;SDS011;164;50.784;6.496;2023-03-01T07:24:22;18.15;;;17.25;;
351;SDS011;164;50.784;6.496;2023-03-01T07:26:49;17.58;;;16.67;;
351;SDS011;164;50.784;6.496;2023-03-01T07:29:17;16.30;;;14.88;;
351;SDS011;164;50.784;6.496;2023-03-01T07:31:46;17.20;;;16.30;;
351;SDS011;164;50.784;6.496;2023-03-01T07:34:13;17.02;;;15.95;;
351;SDS011;164;50.784;6.496;2023-03-01T07:36:40;22.73;;;16.77;;
351;SDS011;164;50.784;6.496;2023-03-01T07:39:10;19.13;;;18.08;;
351;SDS011;164;50.784;6.496;2023-03-01T07:41:37;16.70;;;15.90;;
351;SDS011;164;50.784;6.496;2023-03-01T07:44:05;16.27;;;15.48;;
351;SDS011;164;50.784;6.496;2023-03-01T07:46:33;17.10;;;16.20;;
351;SDS011;164;50.784;6.496;2023-03-01T07:49:01;17.55;;;16.65;;
351;SDS011;164;50.784;6.496;2023-03-01T07:51:29;18.90;;;17.95;;
351;SDS011;164;50.784;6.496;2023-03-01T07:53:57;18.88;;;17.50;;
351;SDS011;164;50.784;6.496;2023-03-01T07:56:24;19.27;;;18.27;;
351;SDS011;164;50.784;6.496;2023-03-01T07:58:51;16.60;;;15.77;;
351;SDS011;164;50.784;6.496;2023-03-01T08:01:20;18.08;;;17.17;;
351;SDS011;164;50.784;6.496;2023-03-01T08:03:47;18.67;;;17.77;;
351;SDS011;164;50.784;6.496;2023-03-01T08:06:16;17.45;;;16.55;;
351;SDS011;164;50.784;6.496;2023-03-01T08:08:45;16.40;;;15.60;;
351;SDS011;164;50.784;6.496;2023-03-01T08:11:12;17.65;;;16.75;;
351;SDS011;164;50.784;6.496;2023-03-01T08:13:40;19.55;;;18.55;;
351;SDS011;164;50.784;6.496;2023-03-01T08:16:09;18.95;;;16.92;;
351;SDS011;164;50.784;6.496;2023-03-01T08:18:39;19.02;;;17.80;;
351;SDS011;164;50.784;6.496;2023-03-01T08:21:08;17.55;;;16.65;;
351;SDS011;164;50.784;6.496;2023-03-01T08:23:38;17.95;;;17.05;;
351;SDS011;164;50.784;6.496;2023-03-01T08:26:07;15.98;;;15.20;;
351;SDS011;164;50.784;6.496;2023-03-01T08:28:35;17.92;;;17.02;;
351;SDS011;164;50.784;6.496;2023-03-01T08:31:03;19.25;;;16.83;;
351;SDS011;164;50.784;6.496;2023-03-01T08:33:30;16.75;;;15.90;;
351;SDS011;164;50.784;6.496;2023-03-01T08:36:04;16.73;;;15.90;;
351;SDS011;164;50.784;6.496;2023-03-01T08:38:32;19.58;;;15.98;;
351;SDS011;164;50.784;6.496;2023-03-01T08:41:01;17.48;;;16.58;;
351;SDS011;164;50.784;6.496;2023-03-01T08:43:29;18.00;;;17.10;;
351;SDS011;164;50.784;6.496;2023-03-01T08:45:56;15.80;;;15.00;;
351;SDS011;164;50.784;6.496;2023-03-01T08:48:24;19.02;;;18.05;;
351;SDS011;164;50.784;6.496;2023-03-01T08:50:54;18.77;;;17.88;;
351;SDS011;164;50.784;6.496;2023-03-01T08:53:22;18.48;;;17.58;;
351;SDS011;164;50.784;6.496;2023-03-01T08:55:53;18.17;;;17.27;;
351;SDS011;164;50.784;6.496;2023-03-01T08:58:22;18.05;;;17.15;;
351;SDS011;164;50.784;6.496;2023-03-01T09:00:50;16.67;;;15.88;;
351;SDS011;164;50.784;6.496;2023-03-01T09:03:17;16.73;;;15.88;;
351;SDS011;164;50.784;6.496;2023-03-01T09:05:45;19.35;;;18.35;;
351;SDS011;164;50.784;6.496;2023-03-01T09:08:14;17.50;;;16.60;;
351;SDS011;164;50.784;6.496;2023-03-01T09:10:42;16.15;;;15.35;;
351;SDS011;164;50.784;6.496;2023-03-01T09:13:09;16.73;;;15.43;;
351;SDS011;164;50.784;6.496;2023-03-01T09:15:39;18.35;;;17.45;;
351;SDS011;164;50.784;6.496;2023-03-01T09:18:07;21.13;;;20.02;;
351;SDS011;164;50.784;6.496;2023-03-01T09:20:36;17.85;;;16.95;;
351;SDS011;164;50.784;6.496;2023-03-01T09:23:08;18.58;;;17.63;;
351;SDS011;164;50.784;6.496;2023-03-01T09:25:36;18.70;;;17.27;;
351;SDS011;164;50.784;6.496;2023-03-01T09:28:03;19.65;;;18.65;;
351;SDS011;164;50.784;6.496;2023-03-01T09:30:31;17.10;;;16.20;;
351;SDS011;164;50.784;6.496;2023-03-01T09:33:03;18.30;;;17.40;;
351;SDS011;164;50.784;6.496;2023-03-01T09:35:31;17.55;;;16.02;;
351;SDS011;164;50.784;6.496;2023-03-01T09:37:59;17.52;;;16.63;;
351;SDS011;164;50.784;6.496;2023-03-01T09:40:27;18.20;;;17.30;;
351;SDS011;164;50.784;6.496;2023-03-01T09:42:57;19.95;;;18.92;;
351;SDS011;164;50.784;6.496;2023-03-01T09:45:33;22.25;;;21.15;;
351;SDS011;164;50.784;6.496;2023-03-01T09:48:06;21.85;;;20.75;;
351;SDS011;164;50.784;6.496;2023-03-01T09:50:39;22.02;;;20.92;;
351;SDS011;164;50.784;6.496;2023-03-01T09:53:09;20.80;;;19.77;;
351;SDS011;164;50.784;6.496;2023-03-01T09:55:38;21.15;;;20.08;;
351;SDS011;164;50.784;6.496;2023-03-01T09:58:15;22.00;;;20.90;;
351;SDS011;164;50.784;6.496;2023-03-01T10:00:49;19.65;;;18.65;;
351;SDS011;164;50.784;6.496;2023-03-01T10:03:22;19.45;;;18.45;;
351;SDS011;164;50.784;6.496;2023-03-01T10:05:59;18.63;;;17.70;;
351;SDS011;164;50.784;6.496;2023-03-01T10:08:30;20.48;;;18.98;;
351;SDS011;164;50.784;6.496;2023-03-01T10:11:01;20.17;;;19.17;;
351;SDS011;164;50.784;6.496;2023-03-01T10:13:31;19.25;;;18.27;;
351;SDS011;164;50.784;6.496;2023-03-01T10:16:05;19.38;;;18.38;;
351;SDS011;164;50.784;6.496;2023-03-01T10:18:40;23.27;;;19.95;;
351;SDS011;164;50.784;6.496;2023-03-01T10:21:12;22.40;;;18.77;;
351;SDS011;164;50.784;6.496;2023-03-01T10:23:42;19.25;;;18.25;;
351;SDS011;164;50.784;6.496;2023-03-01T10:26:12;20.67;;;19.60;;
351;SDS011;164;50.784;6.496;2023-03-01T10:28:47;18.80;;;17.88;;
351;SDS011;164;50.784;6.496;2023-03-01T10:31:18;18.38;;;17.48;;
351;SDS011;164;50.784;6.496;2023-03-01T10:33:48;18.58;;;17.67;;
351;SDS011;164;50.784;6.496;2023-03-01T10:36:20;21.00;;;19.95;;
351;SDS011;164;50.784;6.496;2023-03-01T10:38:48;18.08;;;17.17;;
351;SDS011;164;50.784;6.496;2023-03-01T10:46:29;18.40;;;17.50;;
351;SDS011;164;50.784;6.496;2023-03-01T10:49:07;19.98;;;17.85;;
351;SDS011;164;50.784;6.496;2023-03-01T10:51:34;18.40;;;17.50;;
351;SDS011;164;50.784;6.496;2023-03-01T10:54:02;18.23;;;17.33;;
351;SDS011;164;50.784;6.496;2023-03-01T10:56:33;17.90;;;17.00;;
351;SDS011;164;50.784;6.496;2023-03-01T10:59:20;17.13;;;16.23;;
351;SDS011;164;50.784;6.496;2023-03-01T11:02:00;18.50;;;17.60;;
351;SDS011;164;50.784;6.496;2023-03-01T11:04:31;18.88;;;17.92;;
351;SDS011;164;50.784;6.496;2023-03-01T11:06:59;18.95;;;17.92;;
351;SDS011;164;50.784;6.496;2023-03-01T11:09:30;19.02;;;18.02;;
351;SDS011;164;50.784;6.496;2023-03-01T11:12:03;17.60;;;16.70;;
351;SDS011;164;50.784;6.496;2023-03-01T11:14:33;16.52;;;15.73;;
351;SDS011;164;50.784;6.496;2023-03-01T11:17:03;17.08;;;16.17;;
351;SDS011;164;50.784;6.496;2023-03-01T11:19:32;16.77;;;15.93;;
351;SDS011;164;50.784;6.496;2023-03-01T11:22:01;17.25;;;16.35;;
351;SDS011;164;50.784;6.496;2023-03-01T11:24:30;18.70;;;17.80;;
351;SDS011;164;50.784;6.496;2023-03-01T11:27:01;18.17;;;17.27;;
351;SDS011;164;50.784;6.496;2023-03-01T11:29:35;18.05;;;15.85;;
351;SDS011;164;50.784;6.496;2023-03-01T11:32:04;18.15;;;16.35;;
351;SDS011;164;50.784;6.496;2023-03-01T11:34:43;16.48;;;15.68;;
351;SDS011;164;50.784;6.496;2023-03-01T11:37:21;15.82;;;15.02;;
351;SDS011;164;50.784;6.496;2023-03-01T11:39:52;16.75;;;15.90;;
351;SDS011;164;50.784;6.496;2023-03-01T11:42:23;16.85;;;16.00;;
351;SDS011;164;50.784;6.496;2023-03-01T11:44:52;16.40;;;15.60;;
351;SDS011;164;50.784;6.496;2023-03-01T11:47:25;16.83;;;15.85;;
351;SDS011;164;50.784;6.496;2023-03-01T11:50:15;15.90;;;15.10;;
351;SDS011;164;50.784;6.496;2023-03-01T11:52:48;16.30;;;15.50;;
351;SDS011;164;50.784;6.496;2023-03-01T11:55:35;15.70;;;14.90;;
351;SDS011;164;50.784;6.496;2023-03-01T11:58:16;16.27;;;15.48;;
351;SDS011;164;50.784;6.496;2023-03-01T12:03:33;16.45;;;15.65;;
351;SDS011;164;50.784;6.496;2023-03-01T12:06:19;18.90;;;16.52;;
351;SDS011;164;50.784;6.496;2023-03-01T12:08:54;16.42;;;15.63;;
351;SDS011;164;50.784;6.496;2023-03-01T12:11:28;16.98;;;16.08;;
351;SDS011;164;50.784;6.496;2023-03-01T12:14:02;16.95;;;15.05;;
351;SDS011;164;50.784;6.496;2023-03-01T12:16:34;16.30;;;15.50;;
351;SDS011;164;50.784;6.496;2023-03-01T12:21:58;16.23;;;15.40;;
351;SDS011;164;50.784;6.496;2023-03-01T12:27:19;16.33;;;15.50;;
351;SDS011;164;50.784;6.496;2023-03-01T12:29:56;17.35;;;16.08;;
351;SDS011;164;50.784;6.496;2023-03-01T12:35:28;16.20;;;15.40;;
351;SDS011;164;50.784;6.496;2023-03-01T12:38:04;17.92;;;17.02;;
351;SDS011;164;50.784;6.496;2023-03-01T12:40:43;16.63;;;15.75;;
351;SDS011;164;50.784;6.496;2023-03-01T12:43:16;17.95;;;16.83;;
351;SDS011;164;50.784;6.496;2023-03-01T12:45:52;16.88;;;16.00;;
351;SDS011;164;50.784;6.496;2023-03-01T12:48:25;17.13;;;16.23;;
351;SDS011;164;50.784;6.496;2023-03-01T12:50:57;16.63;;;15.82;;
351;SDS011;164;50.784;6.496;2023-03-01T12:53:28;17.25;;;15.70;;
351;SDS011;164;50.784;6.496;2023-03-01T12:55:58;16.70;;;15.88;;
351;SDS011;164;50.784;6.496;2023-03-01T12:58:28;16.10;;;15.30;;
351;SDS011;164;50.784;6.496;2023-03-01T13:01:04;16.30;;;15.50;;
351;SDS011;164;50.784;6.496;2023-03-01T13:03:36;15.90;;;15.10;;
351;SDS011;164;50.784;6.496;2023-03-01T13:06:07;14.48;;;13.77;;
351;SDS011;164;50.784;6.496;2023-03-01T13:08:38;14.70;;;13.90;;
351;SDS011;164;50.784;6.496;2023-03-01T13:11:11;15.43;;;14.63;;
351;SDS011;164;50.784;6.496;2023-03-01T13:13:41;14.00;;;13.30;;
351;SDS011;164;50.784;6.496;2023-03-01T13:16:20;14.30;;;13.60;;
351;SDS011;164;50.784;6.496;2023-03-01T13:18:47;12.90;;;12.20;;
351;SDS011;164;50.784;6.496;2023-03-01T13:21:16;14.27;;;13.30;;
351;SDS011;164;50.784;6.496;2023-03-01T13:23:57;15.23;;;12.40;;
351;SDS011;164;50.784;6.496;2023-03-01T13:26:27;13.38;;;12.68;;
351;SDS011;164;50.784;6.496;2023-03-01T13:28:56;12.45;;;11.85;;
351;SDS011;164;50.784;6.496;2023-03-01T13:37:18;13.07;;;12.38;;
351;SDS011;164;50.784;6.496;2023-03-01T13:39:50;12.18;;;11.57;;
351;SDS011;164;50.784;6.496;2023-03-01T13:42:30;12.43;;;11.82;;
351;SDS011;164;50.784;6.496;2023-03-01T13:44:58;11.65;;;11.05;;
351;SDS011;164;50.784;6.496;2023-03-01T13:47:25;13.00;;;12.23;;
351;SDS011;164;50.784;6.496;2023-03-01T13:49:56;12.98;;;11.80;;
351;SDS011;164;50.784;6.496;2023-03-01T13:52:30;11.23;;;10.63;;
351;SDS011;164;50.784;6.496;2023-03-01T13:55:00;11.38;;;10.77;;
351;SDS011;164;50.784;6.496;2023-03-01T13:57:32;15.02;;;10.55;;
351;SDS011;164;50.784;6.496;2023-03-01T14:00:00;10.98;;;10.38;;
351;SDS011;164;50.784;6.496;2023-03-01T14:02:28;11.82;;;11.18;;
351;SDS011;164;50.784;6.496;2023-03-01T14:04:55;11.30;;;10.65;;
351;SDS011;164;50.784;6.496;2023-03-01T14:07:23;10.98;;;9.98;;
351;SDS011;164;50.784;6.496;2023-03-01T14:09:52;10.75;;;10.13;;
351;SDS011;164;50.784;6.496;2023-03-01T14:12:26;10.45;;;9.93;;
351;SDS011;164;50.784;6.496;2023-03-01T14:14:59;12.13;;;10.30;;
351;SDS011;164;50.784;6.496;2023-03-01T14:20:23;11.23;;;10.63;;
351;SDS011;164;50.784;6.496;2023-03-01T14:22:52;12.15;;;11.57;;
351;SDS011;164;50.784;6.496;2023-03-01T14:25:25;11.40;;;10.80;;
351;SDS011;164;50.784;6.496;2023-03-01T14:27:59;11.52;;;10.93;;
351;SDS011;164;50.784;6.496;2023-03-01T14:30:27;11.10;;;10.50;;
351;SDS011;164;50.784;6.496;2023-03-01T14:32:58;10.90;;;10.30;;
351;SDS011;164;50.784;6.496;2023-03-01T14:35:27;11.90;;;11.30;;
351;SDS011;164;50.784;6.496;2023-03-01T14:37:54;11.90;;;11.30;;
351;SDS011;164;50.784;6.496;2023-03-01T14:40:23;11.05;;;10.45;;
351;SDS011;164;50.784;6.496;2023-03-01T14:42:51;12.07;;;11.48;;
351;SDS011;164;50.784;6.496;2023-03-01T14:45:25;11.25;;;10.65;;
351;SDS011;164;50.784;6.496;2023-03-01T14:47:53;12.20;;;11.60;;
351;SDS011;164;50.784;6.496;2023-03-01T14:50:22;13.10;;;12.40;;
351;SDS011;164;50.784;6.496;2023-03-01T14:52:53;11.90;;;11.30;;
351;SDS011;164;50.784;6.496;2023-03-01T14:55:22;14.68;;;13.93;;
351;SDS011;164;50.784;6.496;2023-03-01T14:57:52;13.38;;;12.68;;
351;SDS011;164;50.784;6.496;2023-03-01T15:00:30;11.50;;;10.90;;
351;SDS011;164;50.784;6.496;2023-03-01T15:03:00;11.25;;;10.65;;
351;SDS011;164;50.784;6.496;2023-03-01T15:05:29;12.15;;;11.55;;
351;SDS011;164;50.784;6.496;2023-03-01T15:07:58;12.15;;;11.55;;
351;SDS011;164;50.784;6.496;2023-03-01T15:10:28;12.30;;;11.70;;
351;SDS011;164;50.784;6.496;2023-03-01T15:12:55;12.27;;;11.68;;
351;SDS011;164;50.784;6.496;2023-03-01T15:15:34;12.73;;;12.05;;
351;SDS011;164;50.784;6.496;2023-03-01T15:18:03;12.60;;;11.95;;
351;SDS011;164;50.784;6.496;2023-03-01T15:20:31;15.85;;;11.15;;
351;SDS011;164;50.784;6.496;2023-03-01T15:23:02;11.70;;;11.10;;
351;SDS011;164;50.784;6.496;2023-03-01T15:25:30;18.05;;;10.73;;
351;SDS011;164;50.784;6.496;2023-03-01T15:28:00;11.43;;;10.82;;
351;SDS011;164;50.784;6.496;2023-03-01T15:30:29;12.35;;;10.93;;
351;SDS011;164;50.784;6.496;2023-03-01T15:33:25;12.82;;;10.90;;
351;SDS011;164;50.784;6.496;2023-03-01T15:35:55;10.45;;;9.68;;
351;SDS011;164;50.784;6.496;2023-03-01T15:38:29;13.18;;;10.18;;
351;SDS011;164;50.784;6.496;2023-03-01T15:46:18;9.95;;;9.45;;
351;SDS011;164;50.784;6.496;2023-03-01T15:48:48;10.25;;;9.75;;
351;SDS011;164;50.784;6.496;2023-03-01T15:51:17;9.77;;;9.27;;
351;SDS011;164;50.784;6.496;2023-03-01T15:53:47;12.77;;;9.55;;
351;SDS011;164;50.784;6.496;2023-03-01T15:56:15;12.40;;;9.93;;
351;SDS011;164;50.784;6.496;2023-03-01T15:58:42;10.43;;;9.90;;
351;SDS011;164;50.784;6.496;2023-03-01T16:01:10;10.68;;;10.07;;
351;SDS011;164;50.784;6.496;2023-03-01T16:03:39;10.90;;;10.30;;
351;SDS011;164;50.784;6.496;2023-03-01T16:06:09;9.80;;;9.13;;
351;SDS011;164;50.784;6.496;2023-03-01T16:08:37;10.00;;;9.50;;
351;SDS011;164;50.784;6.496;2023-03-01T16:11:05;11.02;;;9.70;;
351;SDS011;164;50.784;6.496;2023-03-01T16:13:37;9.05;;;8.52;;